< Typhoon 197903 1979 Season Typhoon 197905 >
Typhoon 197904 (DOT)
General InformationTrack Information on Google MapsDetailed Wind InformationList of All Images || Disaster Info.ResourceGoogle EarthGE AnimationAtom FeedGeoJSON
Detalied Best Track (Time Zone = UTC)
Year Month Day Hour Lat. Long. Pressure (hPa) Wind (kt) Class Image Chart
1979 5 9 00 7.0 133.5 1008 0 2 Image Chart
1979 5 9 06 7.6 133.1 1006 0 2 Image Chart
1979 5 9 12 8.0 132.8 1006 0 2 Image Chart
1979 5 9 18 8.2 132.0 1006 0 2 Image Chart
1979 5 10 00 8.5 131.0 1004 0 2 Image Chart
1979 5 10 06 8.7 130.0 1004 0 2 Image Chart
1979 5 10 12 8.9 128.6 1004 0 2 Image Chart
1979 5 10 18 9.0 127.0 1004 0 2 Image Chart
1979 5 11 00 9.2 125.9 1004 0 2 Image Chart
1979 5 11 06 9.4 124.7 1004 0 2 Image Chart
1979 5 11 12 9.6 123.5 1004 0 2 Image Chart
1979 5 11 18 9.8 122.2 1004 0 2 Image Chart
1979 5 12 00 10.1 121.0 1002 0 2 Image Chart
1979 5 12 06 10.4 120.4 1000 0 2 Image Chart
1979 5 12 12 11.0 120.2 1000 0 2 Image Chart
1979 5 12 18 11.6 120.0 1000 0 2 Image Chart
1979 5 13 00 12.1 119.9 996 35 3 Image Chart
1979 5 13 06 12.6 119.8 994 35 3 Image Chart
1979 5 13 12 13.0 119.9 990 40 3 Image Chart
1979 5 13 18 13.4 120.0 985 40 3 Image Chart
1979 5 14 00 13.7 120.1 990 40 3 Image Chart
1979 5 14 06 14.0 120.7 996 0 2 Image Chart
1979 5 14 12 14.3 121.1 1002 0 2 Image Chart
1979 5 14 18 14.7 121.8 1002 0 2 Image Chart
1979 5 15 00 15.1 122.8 1002 0 2 Image Chart
1979 5 15 06 15.8 123.5 1002 0 2 Image Chart
1979 5 15 12 16.2 124.2 1002 0 2 Image Chart
1979 5 15 18 16.9 125.1 1002 0 2 Image Chart
1979 5 16 00 17.5 125.9 1002 0 2 Image Chart
1979 5 16 06 18.2 126.8 1002 0 2 Image Chart
1979 5 16 12 19.2 128.3 1002 0 2 Image Chart
1979 5 16 18 20.6 130.6 1002 0 2 Image Chart
1979 5 17 00 22.4 133.4 1002 0 2 Image Chart
1979 5 17 06 24.2 135.7 1002 0 2 Image Chart
1979 5 17 12 25.8 139.0 1006 0 6 Image Chart
Japan Meteorological Agency Best Track Data | Correction Date : 1992-10-21
< Typhoon 197903 1979 Season Typhoon 197905 >

Help